IUA weather

Canandaigua Airport
Ontario County IDA, New York, United States

Public forecast

Using degrees Fahrenheit for public forecast. Weather courtesy of forecast.io.

METAR (pilot weather report)

Closest report is Greater Rochester International Airport, 19.8 nm (36.6 km) NW. Retrieved 2019/04/24 08:54 UTC (31 minutes ago):

KROC 240854Z 27012KT 10SM OVC030 07/01 A2983 RMK AO2 PK WND 31027/0759 SLP106 T00720006 51005

TAF (pilot weather forecast)

Closest forecast is Greater Rochester International Airport, 19.8 nm (36.6 km) NW. Retrieved 2019/04/24 06:30 UTC (3 hours ago):

TAF KROC 240529Z 2406/2506 26016G24KT P6SM OVC025 FM240900 26017G25KT P6SM OVC020 FM241600 29016G24KT P6SM BKN025 FM242000 29014G21KT P6SM BKN035 FM242200 29011G17KT P6SM SCT035 FM242300 29008KT P6SM SCT250